createdAt,value
2019-05-03T00:03:22.499Z,8.90
2019-05-03T00:06:12.075Z,9.00
2019-05-03T00:12:06.741Z,9.00
2019-05-03T00:17:52.718Z,9.00
2019-05-03T00:20:42.148Z,9.00
2019-05-03T00:23:32.240Z,8.90
2019-05-03T00:26:19.931Z,8.90
2019-05-03T00:29:07.993Z,8.90
2019-05-03T00:31:56.068Z,8.90
2019-05-03T00:40:41.609Z,8.90
2019-05-03T00:43:29.476Z,8.90
2019-05-03T00:46:17.848Z,8.80
2019-05-03T00:49:05.877Z,8.80
2019-05-03T00:51:53.892Z,8.70
2019-05-03T00:54:42.333Z,8.70
2019-05-03T00:57:32.334Z,8.70
2019-05-03T01:00:21.897Z,8.70
2019-05-03T01:03:12.572Z,8.70
2019-05-03T01:06:02.265Z,8.70
2019-05-03T01:08:52.214Z,8.70
2019-05-03T01:11:41.804Z,8.70
2019-05-03T01:14:31.665Z,8.70
2019-05-03T01:17:22.263Z,8.70
2019-05-03T01:20:11.839Z,8.70
2019-05-03T01:22:59.772Z,8.70
2019-05-03T01:25:47.804Z,8.70
2019-05-03T01:28:35.784Z,8.70
2019-05-03T01:31:16.700Z,8.70
2019-05-03T01:33:55.652Z,8.60
2019-05-03T01:36:43.869Z,8.50
2019-05-03T01:39:52.663Z,8.60
2019-05-03T01:42:42.566Z,8.50
2019-05-03T01:45:31.853Z,8.50
2019-05-03T01:48:41.498Z,8.50
2019-05-03T01:51:48.242Z,8.50
2019-05-03T01:54:36.261Z,8.60
2019-05-03T01:57:24.357Z,8.60
2019-05-03T01:59:53.135Z,8.60
2019-05-03T02:02:42.006Z,8.50
2019-05-03T02:05:49.145Z,8.50
2019-05-03T02:08:17.965Z,8.50
2019-05-03T02:11:06.450Z,8.50
2019-05-03T02:13:54.573Z,8.60
2019-05-03T02:16:42.612Z,8.50
2019-05-03T02:19:32.544Z,8.40
2019-05-03T02:22:22.491Z,8.40
2019-05-03T02:25:12.312Z,8.40
2019-05-03T02:28:01.782Z,8.50
2019-05-03T02:30:33.245Z,8.50
2019-05-03T02:33:20.225Z,8.50
2019-05-03T02:36:08.319Z,8.50
2019-05-03T02:41:59.767Z,8.50
2019-05-03T02:44:46.153Z,8.60
2019-05-03T02:47:55.422Z,8.50
2019-05-03T02:50:45.131Z,8.40
2019-05-03T02:53:32.749Z,8.50
2019-05-03T02:56:22.627Z,8.50
2019-05-03T02:59:10.584Z,8.50
2019-05-03T03:05:16.315Z,8.50
2019-05-03T03:08:05.772Z,8.50
2019-05-03T03:10:55.568Z,8.40
2019-05-03T03:13:42.629Z,8.40
2019-05-03T03:16:30.650Z,8.40
2019-05-03T03:19:18.842Z,8.40
2019-05-03T03:28:15.829Z,8.40
2019-05-03T03:30:57.754Z,8.30
2019-05-03T03:33:40.184Z,8.30
2019-05-03T03:36:44.700Z,8.20
2019-05-03T03:39:01.783Z,8.20
2019-05-03T03:41:50.031Z,8.20
2019-05-03T03:44:38.222Z,8.20
2019-05-03T03:47:27.271Z,8.20
2019-05-03T03:50:16.029Z,8.20
2019-05-03T03:53:06.634Z,8.10
2019-05-03T03:55:56.296Z,8.10
2019-05-03T03:58:46.191Z,8.20
2019-05-03T04:01:34.988Z,8.20
2019-05-03T04:04:25.882Z,8.20
2019-05-03T04:07:15.662Z,8.30
2019-05-03T04:19:39.495Z,8.10
2019-05-03T04:22:27.737Z,8.10
2019-05-03T04:25:16.034Z,8.10
2019-05-03T04:28:05.725Z,8.00
2019-05-03T04:30:55.382Z,8.00
2019-05-03T04:33:26.886Z,8.00
2019-05-03T04:36:18.097Z,8.00
2019-05-03T04:39:20.689Z,8.10
2019-05-03T04:41:38.510Z,8.00
2019-05-03T04:44:26.733Z,8.00
2019-05-03T04:46:58.413Z,8.00
2019-05-03T04:49:46.451Z,8.00
2019-05-03T04:52:36.094Z,8.00
2019-05-03T04:55:26.701Z,8.00
2019-05-03T04:57:56.241Z,8.10
2019-05-03T05:00:46.514Z,8.20
2019-05-03T05:03:36.345Z,8.10
2019-05-03T05:06:25.878Z,8.10
2019-05-03T05:08:56.183Z,8.10
2019-05-03T05:11:45.836Z,8.10
2019-05-03T05:14:35.203Z,8.10
2019-05-03T05:20:25.892Z,8.20
2019-05-03T05:23:14.808Z,8.10
2019-05-03T05:26:24.863Z,8.00
2019-05-03T05:32:05.279Z,8.10
2019-05-03T05:34:35.032Z,8.10
2019-05-03T05:37:25.137Z,8.20
2019-05-03T05:40:15.542Z,8.10
2019-05-03T05:43:04.930Z,8.10
2019-05-03T05:45:55.202Z,8.00
2019-05-03T05:49:04.156Z,7.90
2019-05-03T05:51:51.974Z,7.90
2019-05-03T05:54:20.952Z,8.00
2019-05-03T05:57:28.181Z,8.10
2019-05-03T06:00:00.672Z,8.20
2019-05-03T06:02:29.730Z,8.10
2019-05-03T06:05:18.077Z,8.20
2019-05-03T06:08:25.281Z,8.00
2019-05-03T06:11:14.894Z,8.10
2019-05-03T06:14:04.905Z,8.30
2019-05-03T06:17:12.029Z,8.20
2019-05-03T06:20:19.156Z,8.30
2019-05-03T06:26:28.567Z,8.50
2019-05-03T06:29:18.731Z,8.40
2019-05-03T06:31:56.164Z,8.60
2019-05-03T06:37:25.075Z,8.50
2019-05-03T06:39:54.327Z,8.60
2019-05-03T06:42:25.345Z,8.30
2019-05-03T06:44:54.733Z,8.40
2019-05-03T06:47:48.122Z,8.40
2019-05-03T06:50:34.803Z,8.60
2019-05-03T06:53:25.474Z,8.80
2019-05-03T06:56:14.862Z,8.70
2019-05-03T06:58:44.969Z,8.90
2019-05-03T07:01:59.670Z,8.80
2019-05-03T07:04:50.218Z,8.90
2019-05-03T07:07:46.166Z,8.70
2019-05-03T07:10:37.319Z,8.70
2019-05-03T07:16:15.176Z,9.00
2019-05-03T07:19:04.425Z,9.10
2019-05-03T07:21:54.514Z,9.10
2019-05-03T07:27:37.169Z,9.10
2019-05-03T07:36:15.273Z,9.20
2019-05-03T07:38:59.658Z,9.20
2019-05-03T07:41:28.695Z,9.10
2019-05-03T07:43:57.809Z,9.00
2019-05-03T07:46:46.097Z,9.10
2019-05-03T07:49:35.713Z,9.10
2019-05-03T07:52:25.873Z,9.00
2019-05-03T07:55:14.950Z,9.00
2019-05-03T07:58:04.608Z,9.20
2019-05-03T08:04:05.451Z,9.50
2019-05-03T08:06:54.996Z,9.70
2019-05-03T08:09:45.253Z,9.90
2019-05-03T08:12:34.920Z,9.80
2019-05-03T08:15:24.568Z,9.70
2019-05-03T08:18:15.288Z,9.70
2019-05-03T08:23:57.557Z,9.40
2019-05-03T08:26:48.058Z,9.50
2019-05-03T08:29:39.036Z,9.70
2019-05-03T08:35:35.577Z,10.10
2019-05-03T08:40:59.968Z,9.60
2019-05-03T08:43:40.611Z,9.80
2019-05-03T08:46:29.671Z,9.50
2019-05-03T08:49:12.482Z,9.40
2019-05-03T08:51:55.000Z,9.40
2019-05-03T09:03:16.239Z,10.10
2019-05-03T09:06:01.955Z,10.00
2019-05-03T09:09:15.029Z,10.10
2019-05-03T09:14:45.683Z,9.80
2019-05-03T09:17:27.080Z,9.70
2019-05-03T09:20:08.216Z,9.60
2019-05-03T09:22:48.705Z,10.00
2019-05-03T09:25:29.592Z,10.00
2019-05-03T09:33:58.472Z,10.40
2019-05-03T09:39:58.267Z,10.60
2019-05-03T09:42:30.380Z,10.40
2019-05-03T09:45:12.539Z,10.50
2019-05-03T09:47:58.480Z,10.20
2019-05-03T09:50:39.602Z,10.20
2019-05-03T10:05:19.912Z,10.50
2019-05-03T10:08:10.016Z,10.20
2019-05-03T10:11:27.402Z,10.30
2019-05-03T10:14:15.718Z,10.10
2019-05-03T10:17:25.466Z,10.40
2019-05-03T10:23:41.893Z,11.00
2019-05-03T10:26:30.201Z,11.00
2019-05-03T10:35:15.295Z,11.00
2019-05-03T10:38:05.654Z,10.90
2019-05-03T10:40:55.030Z,10.70
2019-05-03T10:43:45.134Z,10.50
2019-05-03T10:49:41.964Z,10.40
2019-05-03T10:58:38.964Z,10.40
2019-05-03T11:01:46.061Z,10.50
2019-05-03T11:04:35.644Z,10.90
2019-05-03T11:07:25.653Z,11.40
2019-05-03T11:10:14.693Z,11.30
2019-05-03T11:13:05.776Z,11.10
2019-05-03T11:15:54.830Z,11.30
2019-05-03T11:18:42.736Z,11.10
2019-05-03T11:21:31.156Z,11.30
2019-05-03T11:24:23.332Z,11.20
2019-05-03T11:30:24.664Z,11.10
2019-05-03T11:33:08.159Z,11.30
2019-05-03T11:36:15.416Z,10.80
2019-05-03T11:42:12.285Z,11.30
2019-05-03T11:45:00.295Z,11.40
2019-05-03T11:47:48.304Z,11.40
2019-05-03T11:50:36.573Z,11.60
2019-05-03T11:56:31.871Z,11.10
2019-05-03T11:59:19.879Z,11.00
2019-05-03T12:02:26.932Z,10.90
2019-05-03T12:08:28.304Z,11.40
2019-05-03T12:11:16.291Z,11.60
2019-05-03T12:14:24.518Z,11.70
2019-05-03T12:23:16.584Z,11.60
2019-05-03T12:26:10.856Z,11.70
2019-05-03T12:28:55.088Z,11.60
2019-05-03T12:31:45.357Z,11.80
2019-05-03T12:34:25.579Z,12.40
2019-05-03T12:37:05.222Z,12.50
2019-05-03T12:39:54.883Z,12.30
2019-05-03T12:42:45.280Z,12.40
2019-05-03T12:45:35.220Z,12.40
2019-05-03T12:48:24.655Z,12.70
2019-05-03T12:51:14.931Z,12.00
2019-05-03T12:54:04.691Z,11.70
2019-05-03T12:56:51.993Z,11.90
2019-05-03T12:59:59.295Z,11.80
2019-05-03T13:02:51.151Z,11.70
2019-05-03T13:05:39.146Z,11.70
2019-05-03T13:08:46.838Z,11.70
2019-05-03T13:14:30.270Z,11.90
2019-05-03T13:20:45.376Z,12.60
2019-05-03T13:23:35.371Z,12.30
2019-05-03T13:26:25.292Z,12.30
2019-05-03T13:29:15.150Z,12.30
2019-05-03T13:32:02.640Z,12.20
2019-05-03T13:34:50.719Z,12.20
2019-05-03T13:37:38.905Z,12.40
2019-05-03T13:40:27.125Z,12.10
2019-05-03T13:43:15.206Z,12.00
2019-05-03T13:48:56.534Z,12.10
2019-05-03T13:51:45.188Z,11.90
2019-05-03T13:54:35.003Z,11.70
2019-05-03T13:57:24.577Z,11.50
2019-05-03T14:03:09.022Z,11.30
2019-05-03T14:05:57.042Z,11.40
2019-05-03T14:08:45.568Z,11.50
2019-05-03T14:11:35.365Z,11.80
2019-05-03T14:14:25.867Z,11.90
2019-05-03T14:23:07.025Z,12.60
2019-05-03T14:25:55.294Z,12.30
2019-05-03T14:28:45.213Z,12.30
2019-05-03T14:31:34.654Z,12.30
2019-05-03T14:34:17.618Z,12.10
2019-05-03T14:36:56.157Z,11.90
2019-05-03T14:39:46.727Z,12.10
2019-05-03T14:42:33.891Z,12.10
2019-05-03T14:45:21.928Z,12.30
2019-05-03T14:48:09.972Z,12.30
2019-05-03T14:50:58.111Z,12.30
2019-05-03T15:00:02.249Z,12.00
2019-05-03T15:03:09.387Z,12.00
2019-05-03T15:05:58.441Z,12.00
2019-05-03T15:08:47.513Z,12.00
2019-05-03T15:11:35.514Z,12.10
2019-05-03T15:14:25.122Z,12.20
2019-05-03T15:17:13.242Z,12.20
2019-05-03T15:20:01.454Z,12.10
2019-05-03T15:22:49.512Z,12.00
2019-05-03T15:25:37.539Z,12.20
2019-05-03T15:28:25.491Z,12.10
2019-05-03T15:31:13.590Z,12.20
2019-05-03T15:34:01.601Z,12.20
2019-05-03T15:36:40.593Z,12.00
2019-05-03T15:39:28.619Z,12.00
2019-05-03T15:45:30.797Z,11.80
2019-05-03T15:48:37.918Z,11.50
2019-05-03T15:51:26.059Z,11.50
2019-05-03T15:54:15.338Z,11.60
2019-05-03T15:57:05.081Z,11.60
2019-05-03T15:59:55.202Z,11.70
2019-05-03T16:02:43.243Z,11.80
2019-05-03T16:08:51.316Z,12.00
2019-05-03T16:11:39.360Z,11.80
2019-05-03T16:14:27.599Z,11.70
2019-05-03T16:17:16.076Z,11.70
2019-05-03T16:20:05.115Z,11.50
2019-05-03T16:22:54.625Z,11.50
2019-05-03T16:25:44.715Z,11.50
2019-05-03T16:31:34.491Z,11.40
2019-05-03T16:34:24.170Z,11.20
2019-05-03T16:36:54.854Z,11.10
2019-05-03T16:39:45.199Z,11.20
2019-05-03T16:42:34.924Z,11.20
2019-05-03T16:45:22.858Z,11.30
2019-05-03T16:48:10.996Z,11.30
2019-05-03T16:50:59.081Z,11.30
2019-05-03T16:53:47.175Z,11.10
2019-05-03T16:56:35.423Z,11.10
2019-05-03T16:59:24.743Z,10.90
2019-05-03T17:02:14.663Z,10.90
2019-05-03T17:13:41.487Z,10.80
2019-05-03T17:16:29.728Z,10.80
2019-05-03T17:19:17.752Z,10.80
2019-05-03T17:22:05.894Z,10.80
2019-05-03T17:24:54.112Z,10.80
2019-05-03T17:27:42.379Z,10.70
2019-05-03T17:30:33.640Z,10.60
2019-05-03T17:33:20.849Z,10.60
2019-05-03T17:36:09.065Z,10.60
2019-05-03T17:44:46.983Z,10.40
2019-05-03T17:47:35.378Z,10.40
2019-05-03T17:50:23.750Z,10.30
2019-05-03T17:53:30.973Z,10.30
2019-05-03T17:56:38.224Z,10.20
2019-05-03T17:59:45.643Z,10.20
2019-05-03T18:02:52.728Z,10.20
2019-05-03T18:09:14.756Z,10.20
2019-05-03T18:15:14.706Z,10.10
2019-05-03T18:18:02.912Z,10.00
2019-05-03T18:20:51.145Z,10.00
2019-05-03T18:23:19.937Z,9.90
2019-05-03T18:26:07.966Z,9.80
2019-05-03T18:28:56.336Z,9.80
2019-05-03T18:31:45.059Z,9.80
2019-05-03T18:34:33.191Z,9.80
2019-05-03T18:37:12.512Z,9.70
2019-05-03T18:40:00.591Z,9.70
2019-05-03T18:46:18.947Z,9.60
2019-05-03T18:49:07.191Z,9.60
2019-05-03T18:51:55.487Z,9.60
2019-05-03T18:57:56.098Z,9.60
2019-05-03T19:00:44.434Z,9.50
2019-05-03T19:03:34.409Z,9.50
2019-05-03T19:06:22.312Z,9.50
2019-05-03T19:09:29.495Z,9.50
2019-05-03T19:12:17.363Z,9.40
2019-05-03T19:15:05.664Z,9.40
2019-05-03T19:21:06.186Z,9.40
2019-05-03T19:23:54.270Z,9.40
2019-05-03T19:26:42.312Z,9.30
2019-05-03T19:29:30.587Z,9.30
2019-05-03T19:32:18.792Z,9.20
2019-05-03T19:35:06.973Z,9.20
2019-05-03T19:37:47.706Z,9.20
2019-05-03T19:40:16.586Z,9.20
2019-05-03T19:43:05.255Z,9.20
2019-05-03T19:45:35.461Z,9.20
2019-05-03T19:48:25.452Z,9.20
2019-05-03T19:51:13.325Z,9.10
2019-05-03T19:54:01.335Z,9.10
2019-05-03T19:56:49.531Z,9.10
2019-05-03T19:59:57.053Z,8.90
2019-05-03T20:03:08.083Z,8.90
2019-05-03T20:06:14.511Z,8.90
2019-05-03T20:12:04.626Z,8.60
2019-05-03T20:14:35.585Z,8.40
2019-05-03T20:17:23.598Z,8.50
2019-05-03T20:20:11.731Z,8.40
2019-05-03T20:22:59.779Z,8.40
2019-05-03T20:25:47.829Z,8.40
2019-05-03T20:28:35.834Z,8.40
2019-05-03T20:31:25.253Z,8.20
2019-05-03T20:34:15.683Z,8.20
2019-05-03T20:36:55.858Z,8.20
2019-05-03T20:39:34.947Z,8.10
2019-05-03T20:42:42.092Z,8.10
2019-05-03T20:45:49.201Z,8.10
2019-05-03T20:51:26.797Z,8.10
2019-05-03T20:53:55.669Z,8.00
2019-05-03T20:56:45.613Z,8.10
2019-05-03T20:59:44.854Z,8.10
2019-05-03T21:02:23.446Z,8.10
2019-05-03T21:08:52.238Z,8.00
2019-05-03T21:11:29.174Z,8.00
2019-05-03T21:14:17.257Z,8.00
2019-05-03T21:20:42.109Z,7.60
2019-05-03T21:26:26.474Z,7.50
2019-05-03T21:29:15.209Z,7.50
2019-05-03T21:32:04.650Z,7.50
2019-05-03T21:34:55.760Z,7.30
2019-05-03T21:37:45.381Z,7.20
2019-05-03T21:40:24.875Z,7.10
2019-05-03T21:43:15.156Z,7.10
2019-05-03T21:46:22.184Z,7.10
2019-05-03T21:49:29.272Z,7.10
2019-05-03T21:52:17.716Z,7.00
2019-05-03T21:55:05.810Z,6.90
2019-05-03T21:57:55.299Z,6.90
2019-05-03T22:01:04.941Z,6.90
2019-05-03T22:03:52.942Z,6.90
2019-05-03T22:06:41.065Z,6.90
2019-05-03T22:09:29.261Z,6.90
2019-05-03T22:12:17.316Z,6.70
2019-05-03T22:15:26.338Z,6.70
2019-05-03T22:18:35.013Z,6.60
2019-05-03T22:21:42.074Z,6.60
2019-05-03T22:27:38.223Z,6.60
2019-05-03T22:30:26.838Z,6.60
2019-05-03T22:33:16.202Z,6.60
2019-05-03T22:36:08.491Z,6.50
2019-05-03T22:38:45.404Z,6.50
2019-05-03T22:41:34.789Z,6.40
2019-05-03T22:44:25.105Z,6.30
2019-05-03T22:47:14.718Z,6.30
2019-05-03T22:50:02.987Z,6.20
2019-05-03T22:53:10.283Z,6.20
2019-05-03T22:56:01.474Z,6.10
2019-05-03T22:59:09.176Z,6.10
2019-05-03T23:01:57.426Z,6.10
2019-05-03T23:04:45.875Z,6.00
2019-05-03T23:07:37.266Z,6.00
2019-05-03T23:10:25.763Z,6.00
2019-05-03T23:13:15.409Z,6.00
2019-05-03T23:23:24.641Z,5.90
2019-05-03T23:26:14.875Z,5.90
2019-05-03T23:29:06.437Z,5.90
2019-05-03T23:32:15.165Z,5.80
2019-05-03T23:35:07.062Z,5.80
2019-05-03T23:37:48.586Z,5.70
2019-05-03T23:40:34.633Z,5.70
2019-05-03T23:43:18.940Z,5.80
2019-05-03T23:46:04.985Z,5.80
2019-05-03T23:54:32.952Z,5.70
2019-05-03T23:57:21.228Z,5.70
